sensor_id;sensor_type;location;lat;lon;timestamp;P1;durP1;ratioP1;P2;durP2;ratioP2
6763;SDS011;47432;48.760;9.178;2022-10-19T00:02:12;31.00;;;12.07;;
6763;SDS011;47432;48.760;9.178;2022-10-19T00:04:38;30.53;;;11.80;;
6763;SDS011;47432;48.760;9.178;2022-10-19T00:07:07;29.40;;;11.00;;
6763;SDS011;47432;48.760;9.178;2022-10-19T00:09:35;37.20;;;12.33;;
6763;SDS011;47432;48.760;9.178;2022-10-19T00:12:01;27.60;;;10.43;;
6763;SDS011;47432;48.760;9.178;2022-10-19T00:14:27;33.27;;;10.43;;
6763;SDS011;47432;48.760;9.178;2022-10-19T00:16:53;33.13;;;11.93;;
6763;SDS011;47432;48.760;9.178;2022-10-19T00:19:23;33.87;;;13.03;;
6763;SDS011;47432;48.760;9.178;2022-10-19T00:21:50;27.53;;;10.93;;
6763;SDS011;47432;48.760;9.178;2022-10-19T00:24:16;32.17;;;11.57;;
6763;SDS011;47432;48.760;9.178;2022-10-19T00:26:45;34.07;;;12.07;;
6763;SDS011;47432;48.760;9.178;2022-10-19T00:29:13;30.50;;;11.10;;
6763;SDS011;47432;48.760;9.178;2022-10-19T00:31:40;34.87;;;12.27;;
6763;SDS011;47432;48.760;9.178;2022-10-19T00:34:08;35.20;;;13.77;;
6763;SDS011;47432;48.760;9.178;2022-10-19T00:36:36;27.13;;;10.97;;
6763;SDS011;47432;48.760;9.178;2022-10-19T00:39:05;32.27;;;12.70;;
6763;SDS011;47432;48.760;9.178;2022-10-19T00:41:32;30.80;;;11.33;;
6763;SDS011;47432;48.760;9.178;2022-10-19T00:46:30;32.47;;;12.63;;
6763;SDS011;47432;48.760;9.178;2022-10-19T00:49:01;31.37;;;10.73;;
6763;SDS011;47432;48.760;9.178;2022-10-19T00:51:28;31.40;;;11.63;;
6763;SDS011;47432;48.760;9.178;2022-10-19T00:53:56;34.70;;;12.83;;
6763;SDS011;47432;48.760;9.178;2022-10-19T00:56:22;31.07;;;11.40;;
6763;SDS011;47432;48.760;9.178;2022-10-19T00:58:51;31.37;;;10.77;;
6763;SDS011;47432;48.760;9.178;2022-10-19T01:01:18;28.90;;;10.30;;
6763;SDS011;47432;48.760;9.178;2022-10-19T01:03:44;30.90;;;11.63;;
6763;SDS011;47432;48.760;9.178;2022-10-19T01:06:13;31.93;;;11.10;;
6763;SDS011;47432;48.760;9.178;2022-10-19T01:08:39;30.03;;;10.53;;
6763;SDS011;47432;48.760;9.178;2022-10-19T01:14:27;33.43;;;11.27;;
6763;SDS011;47432;48.760;9.178;2022-10-19T01:16:58;30.33;;;11.80;;
6763;SDS011;47432;48.760;9.178;2022-10-19T01:27:31;33.17;;;13.10;;
6763;SDS011;47432;48.760;9.178;2022-10-19T01:30:01;36.30;;;12.93;;
6763;SDS011;47432;48.760;9.178;2022-10-19T01:32:33;33.03;;;12.57;;
6763;SDS011;47432;48.760;9.178;2022-10-19T01:35:06;36.70;;;13.60;;
6763;SDS011;47432;48.760;9.178;2022-10-19T01:37:39;31.80;;;12.50;;
6763;SDS011;47432;48.760;9.178;2022-10-19T01:40:10;32.57;;;12.47;;
6763;SDS011;47432;48.760;9.178;2022-10-19T01:42:41;31.53;;;12.17;;
6763;SDS011;47432;48.760;9.178;2022-10-19T01:45:16;35.73;;;12.20;;
6763;SDS011;47432;48.760;9.178;2022-10-19T01:48:01;29.40;;;11.43;;
6763;SDS011;47432;48.760;9.178;2022-10-19T01:50:30;30.47;;;11.43;;
6763;SDS011;47432;48.760;9.178;2022-10-19T01:52:58;29.73;;;11.10;;
6763;SDS011;47432;48.760;9.178;2022-10-19T01:55:24;34.43;;;10.47;;
6763;SDS011;47432;48.760;9.178;2022-10-19T01:57:53;28.73;;;10.57;;
6763;SDS011;47432;48.760;9.178;2022-10-19T02:00:22;27.93;;;11.10;;
6763;SDS011;47432;48.760;9.178;2022-10-19T02:02:50;30.83;;;12.07;;
6763;SDS011;47432;48.760;9.178;2022-10-19T02:05:17;26.90;;;10.17;;
6763;SDS011;47432;48.760;9.178;2022-10-19T02:07:45;28.73;;;11.73;;
6763;SDS011;47432;48.760;9.178;2022-10-19T02:10:14;37.57;;;14.37;;
6763;SDS011;47432;48.760;9.178;2022-10-19T02:12:41;35.10;;;13.10;;
6763;SDS011;47432;48.760;9.178;2022-10-19T02:15:11;36.30;;;12.73;;
6763;SDS011;47432;48.760;9.178;2022-10-19T02:17:40;35.83;;;13.67;;
6763;SDS011;47432;48.760;9.178;2022-10-19T02:20:07;47.47;;;17.13;;
6763;SDS011;47432;48.760;9.178;2022-10-19T02:22:33;48.43;;;16.97;;
6763;SDS011;47432;48.760;9.178;2022-10-19T02:24:59;64.47;;;20.27;;
6763;SDS011;47432;48.760;9.178;2022-10-19T02:27:25;44.73;;;16.67;;
6763;SDS011;47432;48.760;9.178;2022-10-19T02:29:52;44.10;;;17.60;;
6763;SDS011;47432;48.760;9.178;2022-10-19T02:32:18;50.40;;;18.70;;
6763;SDS011;47432;48.760;9.178;2022-10-19T02:34:44;46.80;;;17.60;;
6763;SDS011;47432;48.760;9.178;2022-10-19T02:37:10;44.97;;;17.07;;
6763;SDS011;47432;48.760;9.178;2022-10-19T02:39:37;51.40;;;19.23;;
6763;SDS011;47432;48.760;9.178;2022-10-19T02:42:04;45.67;;;17.70;;
6763;SDS011;47432;48.760;9.178;2022-10-19T02:44:39;41.63;;;17.17;;
6763;SDS011;47432;48.760;9.178;2022-10-19T02:47:12;57.03;;;20.47;;
6763;SDS011;47432;48.760;9.178;2022-10-19T02:49:42;58.17;;;18.97;;
6763;SDS011;47432;48.760;9.178;2022-10-19T02:52:11;53.43;;;20.00;;
6763;SDS011;47432;48.760;9.178;2022-10-19T02:54:38;52.30;;;20.37;;
6763;SDS011;47432;48.760;9.178;2022-10-19T02:57:08;57.30;;;20.70;;
6763;SDS011;47432;48.760;9.178;2022-10-19T02:59:39;52.10;;;19.77;;
6763;SDS011;47432;48.760;9.178;2022-10-19T03:02:05;55.53;;;20.80;;
6763;SDS011;47432;48.760;9.178;2022-10-19T03:04:31;51.80;;;19.60;;
6763;SDS011;47432;48.760;9.178;2022-10-19T03:06:57;53.17;;;20.50;;
6763;SDS011;47432;48.760;9.178;2022-10-19T03:09:23;57.60;;;19.90;;
6763;SDS011;47432;48.760;9.178;2022-10-19T03:11:49;57.53;;;18.90;;
6763;SDS011;47432;48.760;9.178;2022-10-19T03:14:15;56.60;;;19.13;;
6763;SDS011;47432;48.760;9.178;2022-10-19T03:16:43;47.10;;;17.50;;
6763;SDS011;47432;48.760;9.178;2022-10-19T03:19:09;55.57;;;18.40;;
6763;SDS011;47432;48.760;9.178;2022-10-19T03:21:35;54.63;;;17.83;;
6763;SDS011;47432;48.760;9.178;2022-10-19T03:24:02;48.00;;;16.60;;
6763;SDS011;47432;48.760;9.178;2022-10-19T03:26:29;51.43;;;16.20;;
6763;SDS011;47432;48.760;9.178;2022-10-19T03:28:54;54.67;;;17.30;;
6763;SDS011;47432;48.760;9.178;2022-10-19T03:31:20;49.73;;;18.03;;
6763;SDS011;47432;48.760;9.178;2022-10-19T03:33:46;46.03;;;15.67;;
6763;SDS011;47432;48.760;9.178;2022-10-19T03:36:23;41.80;;;15.73;;
6763;SDS011;47432;48.760;9.178;2022-10-19T03:38:49;56.20;;;17.90;;
6763;SDS011;47432;48.760;9.178;2022-10-19T03:41:16;41.10;;;14.93;;
6763;SDS011;47432;48.760;9.178;2022-10-19T03:43:42;50.10;;;17.77;;
6763;SDS011;47432;48.760;9.178;2022-10-19T03:46:08;49.30;;;15.97;;
6763;SDS011;47432;48.760;9.178;2022-10-19T03:48:34;46.73;;;17.43;;
6763;SDS011;47432;48.760;9.178;2022-10-19T03:51:07;51.03;;;19.50;;
6763;SDS011;47432;48.760;9.178;2022-10-19T03:53:33;50.60;;;18.90;;
6763;SDS011;47432;48.760;9.178;2022-10-19T03:56:00;47.07;;;17.70;;
6763;SDS011;47432;48.760;9.178;2022-10-19T03:58:27;44.07;;;17.70;;
6763;SDS011;47432;48.760;9.178;2022-10-19T04:00:52;43.60;;;17.93;;
6763;SDS011;47432;48.760;9.178;2022-10-19T04:03:18;46.40;;;17.60;;
6763;SDS011;47432;48.760;9.178;2022-10-19T04:05:44;55.87;;;18.33;;
6763;SDS011;47432;48.760;9.178;2022-10-19T04:08:10;47.10;;;17.47;;
6763;SDS011;47432;48.760;9.178;2022-10-19T04:10:36;50.00;;;17.20;;
6763;SDS011;47432;48.760;9.178;2022-10-19T04:13:02;42.73;;;15.50;;
6763;SDS011;47432;48.760;9.178;2022-10-19T04:15:28;44.10;;;17.13;;
6763;SDS011;47432;48.760;9.178;2022-10-19T04:17:54;46.30;;;17.77;;
6763;SDS011;47432;48.760;9.178;2022-10-19T04:20:20;46.43;;;18.47;;
6763;SDS011;47432;48.760;9.178;2022-10-19T04:22:46;45.40;;;16.33;;
6763;SDS011;47432;48.760;9.178;2022-10-19T04:25:14;44.97;;;18.60;;
6763;SDS011;47432;48.760;9.178;2022-10-19T04:27:42;49.97;;;19.27;;
6763;SDS011;47432;48.760;9.178;2022-10-19T04:30:08;49.37;;;18.43;;
6763;SDS011;47432;48.760;9.178;2022-10-19T04:32:34;46.40;;;18.10;;
6763;SDS011;47432;48.760;9.178;2022-10-19T04:35:00;44.50;;;18.37;;
6763;SDS011;47432;48.760;9.178;2022-10-19T04:37:26;53.77;;;19.30;;
6763;SDS011;47432;48.760;9.178;2022-10-19T04:39:54;54.57;;;19.73;;
6763;SDS011;47432;48.760;9.178;2022-10-19T04:42:20;48.07;;;19.83;;
6763;SDS011;47432;48.760;9.178;2022-10-19T04:44:46;41.63;;;18.07;;
6763;SDS011;47432;48.760;9.178;2022-10-19T04:47:12;45.53;;;19.43;;
6763;SDS011;47432;48.760;9.178;2022-10-19T04:49:38;44.73;;;17.27;;
6763;SDS011;47432;48.760;9.178;2022-10-19T04:52:06;43.17;;;17.63;;
6763;SDS011;47432;48.760;9.178;2022-10-19T04:54:32;48.03;;;18.70;;
6763;SDS011;47432;48.760;9.178;2022-10-19T04:56:58;46.40;;;19.40;;
6763;SDS011;47432;48.760;9.178;2022-10-19T04:59:24;48.63;;;18.97;;
6763;SDS011;47432;48.760;9.178;2022-10-19T05:01:50;44.40;;;18.10;;
6763;SDS011;47432;48.760;9.178;2022-10-19T05:04:16;45.00;;;18.63;;
6763;SDS011;47432;48.760;9.178;2022-10-19T05:06:42;44.83;;;18.20;;
6763;SDS011;47432;48.760;9.178;2022-10-19T05:09:11;40.53;;;16.30;;
6763;SDS011;47432;48.760;9.178;2022-10-19T05:11:41;40.60;;;18.00;;
6763;SDS011;47432;48.760;9.178;2022-10-19T05:14:07;43.83;;;17.27;;
6763;SDS011;47432;48.760;9.178;2022-10-19T05:16:33;44.97;;;17.67;;
6763;SDS011;47432;48.760;9.178;2022-10-19T05:19:01;42.70;;;17.17;;
6763;SDS011;47432;48.760;9.178;2022-10-19T05:21:27;44.40;;;17.80;;
6763;SDS011;47432;48.760;9.178;2022-10-19T05:23:54;44.17;;;18.13;;
6763;SDS011;47432;48.760;9.178;2022-10-19T05:26:21;40.90;;;17.00;;
6763;SDS011;47432;48.760;9.178;2022-10-19T05:28:48;42.50;;;17.70;;
6763;SDS011;47432;48.760;9.178;2022-10-19T05:31:15;39.70;;;17.83;;
6763;SDS011;47432;48.760;9.178;2022-10-19T05:33:42;42.20;;;17.73;;
6763;SDS011;47432;48.760;9.178;2022-10-19T05:38:46;40.90;;;18.83;;
6763;SDS011;47432;48.760;9.178;2022-10-19T05:41:13;42.50;;;19.17;;
6763;SDS011;47432;48.760;9.178;2022-10-19T05:43:39;42.90;;;17.83;;
6763;SDS011;47432;48.760;9.178;2022-10-19T05:46:06;47.80;;;20.10;;
6763;SDS011;47432;48.760;9.178;2022-10-19T05:48:33;41.00;;;17.17;;
6763;SDS011;47432;48.760;9.178;2022-10-19T05:51:03;38.77;;;17.90;;
6763;SDS011;47432;48.760;9.178;2022-10-19T05:53:29;41.23;;;18.80;;
6763;SDS011;47432;48.760;9.178;2022-10-19T05:55:56;38.53;;;18.10;;
6763;SDS011;47432;48.760;9.178;2022-10-19T05:58:22;39.73;;;19.53;;
6763;SDS011;47432;48.760;9.178;2022-10-19T06:00:54;35.60;;;17.40;;
6763;SDS011;47432;48.760;9.178;2022-10-19T06:03:21;39.87;;;19.80;;
6763;SDS011;47432;48.760;9.178;2022-10-19T06:05:49;40.03;;;20.00;;
6763;SDS011;47432;48.760;9.178;2022-10-19T06:08:16;39.40;;;19.33;;
6763;SDS011;47432;48.760;9.178;2022-10-19T06:10:42;41.27;;;19.03;;
6763;SDS011;47432;48.760;9.178;2022-10-19T06:13:11;39.40;;;19.40;;
6763;SDS011;47432;48.760;9.178;2022-10-19T06:15:37;41.40;;;19.50;;
6763;SDS011;47432;48.760;9.178;2022-10-19T06:18:11;30.87;;;14.90;;
6763;SDS011;47432;48.760;9.178;2022-10-19T06:20:40;34.73;;;16.77;;
6763;SDS011;47432;48.760;9.178;2022-10-19T06:23:07;32.70;;;15.60;;
6763;SDS011;47432;48.760;9.178;2022-10-19T06:25:33;43.43;;;18.90;;
6763;SDS011;47432;48.760;9.178;2022-10-19T06:27:59;31.83;;;15.50;;
6763;SDS011;47432;48.760;9.178;2022-10-19T06:30:25;36.77;;;15.57;;
6763;SDS011;47432;48.760;9.178;2022-10-19T06:32:51;34.20;;;14.63;;
6763;SDS011;47432;48.760;9.178;2022-10-19T06:35:19;32.77;;;14.70;;
6763;SDS011;47432;48.760;9.178;2022-10-19T06:37:48;37.90;;;14.83;;
6763;SDS011;47432;48.760;9.178;2022-10-19T06:40:14;32.53;;;15.27;;
6763;SDS011;47432;48.760;9.178;2022-10-19T06:42:40;37.50;;;13.80;;
6763;SDS011;47432;48.760;9.178;2022-10-19T06:45:07;29.50;;;12.87;;
6763;SDS011;47432;48.760;9.178;2022-10-19T06:47:33;28.27;;;12.57;;
6763;SDS011;47432;48.760;9.178;2022-10-19T06:50:00;29.93;;;13.20;;
6763;SDS011;47432;48.760;9.178;2022-10-19T06:52:26;34.60;;;14.70;;
6763;SDS011;47432;48.760;9.178;2022-10-19T06:54:52;31.50;;;12.90;;
6763;SDS011;47432;48.760;9.178;2022-10-19T06:57:18;27.83;;;12.13;;
6763;SDS011;47432;48.760;9.178;2022-10-19T06:59:44;26.33;;;11.63;;
6763;SDS011;47432;48.760;9.178;2022-10-19T07:02:10;27.50;;;11.83;;
6763;SDS011;47432;48.760;9.178;2022-10-19T07:04:36;26.77;;;12.50;;
6763;SDS011;47432;48.760;9.178;2022-10-19T07:07:02;25.63;;;11.57;;
6763;SDS011;47432;48.760;9.178;2022-10-19T07:09:28;28.33;;;12.20;;
6763;SDS011;47432;48.760;9.178;2022-10-19T07:11:54;24.80;;;11.20;;
6763;SDS011;47432;48.760;9.178;2022-10-19T07:14:22;26.87;;;11.10;;
6763;SDS011;47432;48.760;9.178;2022-10-19T07:16:49;28.63;;;12.23;;
6763;SDS011;47432;48.760;9.178;2022-10-19T07:19:15;26.60;;;11.67;;
6763;SDS011;47432;48.760;9.178;2022-10-19T07:21:41;26.57;;;11.90;;
6763;SDS011;47432;48.760;9.178;2022-10-19T07:24:12;26.37;;;12.10;;
6763;SDS011;47432;48.760;9.178;2022-10-19T07:26:37;29.73;;;13.13;;
6763;SDS011;47432;48.760;9.178;2022-10-19T07:29:03;24.60;;;10.80;;
6763;SDS011;47432;48.760;9.178;2022-10-19T07:31:32;24.63;;;11.53;;
6763;SDS011;47432;48.760;9.178;2022-10-19T07:34:01;30.33;;;12.03;;
6763;SDS011;47432;48.760;9.178;2022-10-19T07:36:29;22.30;;;9.67;;
6763;SDS011;47432;48.760;9.178;2022-10-19T07:39:00;25.67;;;11.13;;
6763;SDS011;47432;48.760;9.178;2022-10-19T07:41:29;22.60;;;10.77;;
6763;SDS011;47432;48.760;9.178;2022-10-19T07:43:58;22.77;;;9.90;;
6763;SDS011;47432;48.760;9.178;2022-10-19T07:46:26;22.70;;;9.80;;
6763;SDS011;47432;48.760;9.178;2022-10-19T07:49:01;24.33;;;11.20;;
6763;SDS011;47432;48.760;9.178;2022-10-19T07:51:28;26.87;;;11.00;;
6763;SDS011;47432;48.760;9.178;2022-10-19T07:53:54;31.37;;;11.17;;
6763;SDS011;47432;48.760;9.178;2022-10-19T07:56:21;25.60;;;12.00;;
6763;SDS011;47432;48.760;9.178;2022-10-19T07:58:50;30.40;;;12.30;;
6763;SDS011;47432;48.760;9.178;2022-10-19T08:01:18;22.23;;;9.70;;
6763;SDS011;47432;48.760;9.178;2022-10-19T08:03:44;23.03;;;9.87;;
6763;SDS011;47432;48.760;9.178;2022-10-19T08:06:14;28.40;;;11.33;;
6763;SDS011;47432;48.760;9.178;2022-10-19T08:08:41;23.77;;;10.47;;
6763;SDS011;47432;48.760;9.178;2022-10-19T08:13:33;24.53;;;10.33;;
6763;SDS011;47432;48.760;9.178;2022-10-19T08:15:59;24.13;;;10.83;;
6763;SDS011;47432;48.760;9.178;2022-10-19T08:18:28;24.90;;;10.57;;
6763;SDS011;47432;48.760;9.178;2022-10-19T08:20:54;23.70;;;10.53;;
6763;SDS011;47432;48.760;9.178;2022-10-19T08:23:22;24.50;;;10.70;;
6763;SDS011;47432;48.760;9.178;2022-10-19T08:25:49;33.23;;;13.33;;
6763;SDS011;47432;48.760;9.178;2022-10-19T08:28:15;22.50;;;9.77;;
6763;SDS011;47432;48.760;9.178;2022-10-19T08:30:42;19.63;;;9.70;;
6763;SDS011;47432;48.760;9.178;2022-10-19T08:33:08;22.33;;;10.23;;
6763;SDS011;47432;48.760;9.178;2022-10-19T08:35:36;21.87;;;9.37;;
6763;SDS011;47432;48.760;9.178;2022-10-19T08:38:02;21.67;;;10.50;;
6763;SDS011;47432;48.760;9.178;2022-10-19T08:40:28;21.27;;;9.80;;
6763;SDS011;47432;48.760;9.178;2022-10-19T08:42:57;22.63;;;9.63;;
6763;SDS011;47432;48.760;9.178;2022-10-19T08:47:54;18.70;;;9.47;;
6763;SDS011;47432;48.760;9.178;2022-10-19T08:50:44;21.30;;;9.73;;
6763;SDS011;47432;48.760;9.178;2022-10-19T08:53:21;22.67;;;10.10;;
6763;SDS011;47432;48.760;9.178;2022-10-19T08:55:59;25.67;;;10.10;;
6763;SDS011;47432;48.760;9.178;2022-10-19T08:58:35;21.43;;;9.97;;
6763;SDS011;47432;48.760;9.178;2022-10-19T09:01:10;18.07;;;8.60;;
6763;SDS011;47432;48.760;9.178;2022-10-19T09:03:45;18.70;;;8.17;;
6763;SDS011;47432;48.760;9.178;2022-10-19T09:08:46;17.93;;;7.50;;
6763;SDS011;47432;48.760;9.178;2022-10-19T09:11:13;19.97;;;8.20;;
6763;SDS011;47432;48.760;9.178;2022-10-19T09:13:42;21.87;;;9.03;;
6763;SDS011;47432;48.760;9.178;2022-10-19T09:16:15;19.87;;;8.63;;
6763;SDS011;47432;48.760;9.178;2022-10-19T09:18:42;25.17;;;8.70;;
6763;SDS011;47432;48.760;9.178;2022-10-19T09:26:15;22.17;;;10.20;;
6763;SDS011;47432;48.760;9.178;2022-10-19T09:28:47;19.97;;;8.20;;
6763;SDS011;47432;48.760;9.178;2022-10-19T09:34:09;19.37;;;8.53;;
6763;SDS011;47432;48.760;9.178;2022-10-19T09:36:44;18.17;;;7.60;;
6763;SDS011;47432;48.760;9.178;2022-10-19T09:39:12;19.07;;;8.03;;
6763;SDS011;47432;48.760;9.178;2022-10-19T09:41:44;18.13;;;8.10;;
6763;SDS011;47432;48.760;9.178;2022-10-19T09:44:11;18.80;;;7.90;;
6763;SDS011;47432;48.760;9.178;2022-10-19T09:46:43;27.80;;;8.80;;
6763;SDS011;47432;48.760;9.178;2022-10-19T09:49:12;19.10;;;8.30;;
6763;SDS011;47432;48.760;9.178;2022-10-19T09:51:50;17.73;;;7.93;;
6763;SDS011;47432;48.760;9.178;2022-10-19T09:54:23;22.10;;;9.13;;
6763;SDS011;47432;48.760;9.178;2022-10-19T09:56:53;18.23;;;7.37;;
6763;SDS011;47432;48.760;9.178;2022-10-19T09:59:20;19.40;;;8.30;;
6763;SDS011;47432;48.760;9.178;2022-10-19T10:01:48;21.47;;;7.93;;
6763;SDS011;47432;48.760;9.178;2022-10-19T10:04:23;18.80;;;8.07;;
6763;SDS011;47432;48.760;9.178;2022-10-19T10:06:51;18.43;;;7.97;;
6763;SDS011;47432;48.760;9.178;2022-10-19T10:09:25;19.20;;;6.97;;
6763;SDS011;47432;48.760;9.178;2022-10-19T10:11:55;18.97;;;7.47;;
6763;SDS011;47432;48.760;9.178;2022-10-19T10:14:26;18.37;;;7.00;;
6763;SDS011;47432;48.760;9.178;2022-10-19T10:17:04;19.60;;;7.43;;
6763;SDS011;47432;48.760;9.178;2022-10-19T10:19:31;21.73;;;7.13;;
6763;SDS011;47432;48.760;9.178;2022-10-19T10:21:59;18.90;;;6.40;;
6763;SDS011;47432;48.760;9.178;2022-10-19T10:24:28;14.83;;;5.63;;
6763;SDS011;47432;48.760;9.178;2022-10-19T10:26:55;17.90;;;5.77;;
6763;SDS011;47432;48.760;9.178;2022-10-19T10:29:25;15.60;;;5.80;;
6763;SDS011;47432;48.760;9.178;2022-10-19T10:31:56;15.23;;;5.70;;
6763;SDS011;47432;48.760;9.178;2022-10-19T10:34:42;16.47;;;6.00;;
6763;SDS011;47432;48.760;9.178;2022-10-19T10:39:56;15.53;;;6.30;;
6763;SDS011;47432;48.760;9.178;2022-10-19T10:42:41;14.60;;;6.63;;
6763;SDS011;47432;48.760;9.178;2022-10-19T10:45:19;16.90;;;7.33;;
6763;SDS011;47432;48.760;9.178;2022-10-19T10:47:47;17.13;;;6.80;;
6763;SDS011;47432;48.760;9.178;2022-10-19T10:50:23;16.90;;;6.97;;
6763;SDS011;47432;48.760;9.178;2022-10-19T10:53:04;16.70;;;5.73;;
6763;SDS011;47432;48.760;9.178;2022-10-19T10:55:30;26.63;;;7.73;;
6763;SDS011;47432;48.760;9.178;2022-10-19T10:58:10;17.10;;;6.20;;
6763;SDS011;47432;48.760;9.178;2022-10-19T11:00:38;17.27;;;6.10;;
6763;SDS011;47432;48.760;9.178;2022-10-19T11:03:24;15.13;;;5.53;;
6763;SDS011;47432;48.760;9.178;2022-10-19T11:05:56;16.87;;;6.20;;
6763;SDS011;47432;48.760;9.178;2022-10-19T11:08:30;19.73;;;5.50;;
6763;SDS011;47432;48.760;9.178;2022-10-19T11:13:32;16.40;;;5.57;;
6763;SDS011;47432;48.760;9.178;2022-10-19T11:16:07;17.00;;;5.97;;
6763;SDS011;47432;48.760;9.178;2022-10-19T11:18:40;17.10;;;5.90;;
6763;SDS011;47432;48.760;9.178;2022-10-19T11:23:43;15.23;;;4.90;;
6763;SDS011;47432;48.760;9.178;2022-10-19T11:26:23;16.00;;;5.63;;
6763;SDS011;47432;48.760;9.178;2022-10-19T11:28:54;15.07;;;5.97;;
6763;SDS011;47432;48.760;9.178;2022-10-19T11:31:48;13.20;;;4.57;;
6763;SDS011;47432;48.760;9.178;2022-10-19T11:34:24;16.10;;;5.83;;
6763;SDS011;47432;48.760;9.178;2022-10-19T11:43:01;13.87;;;5.23;;
6763;SDS011;47432;48.760;9.178;2022-10-19T11:45:39;12.97;;;5.00;;
6763;SDS011;47432;48.760;9.178;2022-10-19T11:56:54;16.47;;;5.80;;
6763;SDS011;47432;48.760;9.178;2022-10-19T11:59:46;14.43;;;4.67;;
6763;SDS011;47432;48.760;9.178;2022-10-19T12:05:09;11.87;;;4.40;;
6763;SDS011;47432;48.760;9.178;2022-10-19T12:08:05;14.20;;;5.53;;
6763;SDS011;47432;48.760;9.178;2022-10-19T12:10:49;15.03;;;6.40;;
6763;SDS011;47432;48.760;9.178;2022-10-19T12:13:28;14.60;;;5.50;;
6763;SDS011;47432;48.760;9.178;2022-10-19T12:16:03;15.00;;;5.63;;
6763;SDS011;47432;48.760;9.178;2022-10-19T12:21:30;14.03;;;5.10;;
6763;SDS011;47432;48.760;9.178;2022-10-19T12:24:00;17.93;;;4.80;;
6763;SDS011;47432;48.760;9.178;2022-10-19T12:26:33;15.00;;;5.43;;
6763;SDS011;47432;48.760;9.178;2022-10-19T12:29:11;14.77;;;5.50;;
6763;SDS011;47432;48.760;9.178;2022-10-19T12:31:46;16.00;;;6.37;;
6763;SDS011;47432;48.760;9.178;2022-10-19T12:34:19;16.40;;;6.80;;
6763;SDS011;47432;48.760;9.178;2022-10-19T12:42:28;15.03;;;5.70;;
6763;SDS011;47432;48.760;9.178;2022-10-19T12:45:22;14.93;;;5.63;;
6763;SDS011;47432;48.760;9.178;2022-10-19T12:50:57;13.30;;;5.63;;
6763;SDS011;47432;48.760;9.178;2022-10-19T13:03:44;14.43;;;5.70;;
6763;SDS011;47432;48.760;9.178;2022-10-19T13:06:17;18.37;;;6.53;;
6763;SDS011;47432;48.760;9.178;2022-10-19T13:11:22;15.20;;;5.97;;
6763;SDS011;47432;48.760;9.178;2022-10-19T13:14:05;17.10;;;6.40;;
6763;SDS011;47432;48.760;9.178;2022-10-19T13:16:55;14.93;;;6.00;;
6763;SDS011;47432;48.760;9.178;2022-10-19T13:19:27;14.63;;;6.20;;
6763;SDS011;47432;48.760;9.178;2022-10-19T13:24:30;13.87;;;5.10;;
6763;SDS011;47432;48.760;9.178;2022-10-19T13:29:41;14.83;;;5.97;;
6763;SDS011;47432;48.760;9.178;2022-10-19T13:40:37;12.33;;;4.60;;
6763;SDS011;47432;48.760;9.178;2022-10-19T13:43:22;17.03;;;6.43;;
6763;SDS011;47432;48.760;9.178;2022-10-19T13:46:33;13.30;;;5.20;;
6763;SDS011;47432;48.760;9.178;2022-10-19T13:51:43;17.20;;;5.73;;
6763;SDS011;47432;48.760;9.178;2022-10-19T13:57:19;18.33;;;5.17;;
6763;SDS011;47432;48.760;9.178;2022-10-19T14:00:32;16.60;;;5.60;;
6763;SDS011;47432;48.760;9.178;2022-10-19T14:03:10;15.17;;;3.97;;
6763;SDS011;47432;48.760;9.178;2022-10-19T14:06:39;14.33;;;5.03;;
6763;SDS011;47432;48.760;9.178;2022-10-19T14:11:49;14.87;;;5.20;;
6763;SDS011;47432;48.760;9.178;2022-10-19T14:14:20;12.87;;;5.13;;
6763;SDS011;47432;48.760;9.178;2022-10-19T14:19:31;16.40;;;6.40;;
6763;SDS011;47432;48.760;9.178;2022-10-19T14:25:33;19.03;;;6.80;;
6763;SDS011;47432;48.760;9.178;2022-10-19T14:27:57;12.90;;;4.50;;
6763;SDS011;47432;48.760;9.178;2022-10-19T14:30:30;12.07;;;4.10;;
6763;SDS011;47432;48.760;9.178;2022-10-19T14:33:05;12.97;;;4.67;;
6763;SDS011;47432;48.760;9.178;2022-10-19T14:35:41;13.73;;;5.40;;
6763;SDS011;47432;48.760;9.178;2022-10-19T14:38:15;13.17;;;4.87;;
6763;SDS011;47432;48.760;9.178;2022-10-19T14:40:53;17.77;;;6.77;;
6763;SDS011;47432;48.760;9.178;2022-10-19T14:43:27;16.63;;;5.50;;
6763;SDS011;47432;48.760;9.178;2022-10-19T14:46:02;14.97;;;5.50;;
6763;SDS011;47432;48.760;9.178;2022-10-19T14:48:39;14.30;;;5.23;;
6763;SDS011;47432;48.760;9.178;2022-10-19T14:51:09;14.57;;;4.87;;
6763;SDS011;47432;48.760;9.178;2022-10-19T14:54:07;13.10;;;5.10;;
6763;SDS011;47432;48.760;9.178;2022-10-19T14:57:00;11.73;;;5.00;;
6763;SDS011;47432;48.760;9.178;2022-10-19T14:59:29;14.53;;;5.43;;
6763;SDS011;47432;48.760;9.178;2022-10-19T15:01:59;12.37;;;4.77;;
6763;SDS011;47432;48.760;9.178;2022-10-19T15:04:28;14.20;;;5.43;;
6763;SDS011;47432;48.760;9.178;2022-10-19T15:06:55;11.93;;;4.57;;
6763;SDS011;47432;48.760;9.178;2022-10-19T15:09:28;16.20;;;5.70;;
6763;SDS011;47432;48.760;9.178;2022-10-19T15:12:08;13.60;;;5.37;;
6763;SDS011;47432;48.760;9.178;2022-10-19T15:14:41;16.10;;;5.57;;
6763;SDS011;47432;48.760;9.178;2022-10-19T15:17:28;12.80;;;4.77;;
6763;SDS011;47432;48.760;9.178;2022-10-19T15:19:56;13.50;;;5.40;;
6763;SDS011;47432;48.760;9.178;2022-10-19T15:27:35;17.80;;;6.57;;
6763;SDS011;47432;48.760;9.178;2022-10-19T15:30:55;13.27;;;4.70;;
6763;SDS011;47432;48.760;9.178;2022-10-19T15:40:42;14.50;;;6.27;;
6763;SDS011;47432;48.760;9.178;2022-10-19T15:46:04;12.80;;;4.53;;
6763;SDS011;47432;48.760;9.178;2022-10-19T15:56:31;18.47;;;6.30;;
6763;SDS011;47432;48.760;9.178;2022-10-19T15:58:59;13.00;;;4.77;;
6763;SDS011;47432;48.760;9.178;2022-10-19T16:01:27;13.00;;;4.87;;
6763;SDS011;47432;48.760;9.178;2022-10-19T16:03:55;14.43;;;5.50;;
6763;SDS011;47432;48.760;9.178;2022-10-19T16:06:22;20.00;;;6.43;;
6763;SDS011;47432;48.760;9.178;2022-10-19T16:08:50;12.53;;;4.60;;
6763;SDS011;47432;48.760;9.178;2022-10-19T16:11:18;16.20;;;6.30;;
6763;SDS011;47432;48.760;9.178;2022-10-19T16:13:48;14.40;;;5.30;;
6763;SDS011;47432;48.760;9.178;2022-10-19T16:18:53;15.60;;;6.40;;
6763;SDS011;47432;48.760;9.178;2022-10-19T16:21:20;14.50;;;5.13;;
6763;SDS011;47432;48.760;9.178;2022-10-19T16:23:51;17.20;;;6.70;;
6763;SDS011;47432;48.760;9.178;2022-10-19T16:26:17;15.90;;;6.10;;
6763;SDS011;47432;48.760;9.178;2022-10-19T16:28:43;17.57;;;6.90;;
6763;SDS011;47432;48.760;9.178;2022-10-19T16:31:12;20.70;;;6.33;;
6763;SDS011;47432;48.760;9.178;2022-10-19T16:33:41;14.87;;;6.40;;
6763;SDS011;47432;48.760;9.178;2022-10-19T16:36:09;16.60;;;6.40;;
6763;SDS011;47432;48.760;9.178;2022-10-19T16:38:35;18.00;;;7.00;;
6763;SDS011;47432;48.760;9.178;2022-10-19T16:41:02;18.80;;;7.23;;
6763;SDS011;47432;48.760;9.178;2022-10-19T16:43:33;16.10;;;6.80;;
6763;SDS011;47432;48.760;9.178;2022-10-19T16:46:01;23.73;;;7.60;;
6763;SDS011;47432;48.760;9.178;2022-10-19T16:48:28;17.50;;;6.60;;
6763;SDS011;47432;48.760;9.178;2022-10-19T16:51:15;26.20;;;8.20;;
6763;SDS011;47432;48.760;9.178;2022-10-19T16:53:51;19.23;;;7.53;;
6763;SDS011;47432;48.760;9.178;2022-10-19T16:56:18;17.77;;;6.73;;
6763;SDS011;47432;48.760;9.178;2022-10-19T16:58:45;24.53;;;7.33;;
6763;SDS011;47432;48.760;9.178;2022-10-19T17:01:12;19.10;;;7.30;;
6763;SDS011;47432;48.760;9.178;2022-10-19T17:03:40;18.93;;;7.37;;
6763;SDS011;47432;48.760;9.178;2022-10-19T17:06:08;27.87;;;10.53;;
6763;SDS011;47432;48.760;9.178;2022-10-19T17:08:35;23.07;;;8.53;;
6763;SDS011;47432;48.760;9.178;2022-10-19T17:11:08;23.77;;;8.53;;
6763;SDS011;47432;48.760;9.178;2022-10-19T17:13:35;24.93;;;8.80;;
6763;SDS011;47432;48.760;9.178;2022-10-19T17:16:02;27.10;;;10.00;;